Time;durP1;ratioP1;P1;durP2;ratioP2;P2;SDS_P1;SDS_P2;PMS_P1;PMS_P2;Temp;Humidity;BMP_temperature;BMP_pressure;BME280_temperature;BME280_humidity;BME280_pressure;Samples;Min_cycle;Max_cycle;Signal;HPM_P1;HPM_P2
2022/04/07 00:01:22;;;;;;;33.17;21.20;;;;;;;36.36;47.40;100930.31;4750717;30;20432;-73
2022/04/07 00:03:48;;;;;;;28.17;20.27;;;;;;;36.65;47.05;100918.50;4750735;30;20425;-74
2022/04/07 00:06:15;;;;;;;42.57;23.50;;;;;;;36.61;46.94;100914.81;4750716;30;20960;-74
2022/04/07 00:08:41;;;;;;;33.73;17.80;;;;;;;36.72;46.68;100910.84;4751923;30;20406;-73
2022/04/07 00:11:08;;;;;;;26.90;16.20;;;;;;;36.45;47.04;100904.25;4750520;30;20444;-73
2022/04/07 00:13:35;;;;;;;26.47;17.87;;;;;;;36.39;47.29;100896.47;4750720;30;20503;-73
2022/04/07 00:16:01;;;;;;;27.93;19.00;;;;;;;36.20;47.24;100891.91;4750574;30;20495;-72
2022/04/07 00:18:28;;;;;;;30.00;15.67;;;;;;;36.02;47.58;100890.81;4750299;30;20897;-72
2022/04/07 00:20:54;;;;;;;32.07;17.00;;;;;;;36.29;47.55;100900.16;4751535;30;20453;-73
2022/04/07 00:23:21;;;;;;;28.57;15.63;;;;;;;36.14;47.67;100892.28;4750365;30;20452;-72
2022/04/07 00:25:48;;;;;;;30.13;16.77;;;;;;;36.30;47.48;100893.66;4735854;30;20890;-72
2022/04/07 00:28:15;;;;;;;32.93;17.43;;;;;;;36.31;47.57;100885.25;4749976;30;20488;-74
2022/04/07 00:30:43;;;;;;;37.60;15.80;;;;;;;36.06;47.75;100886.44;4750344;30;20429;-74
2022/04/07 00:33:10;;;;;;;28.03;18.57;;;;;;;36.06;48.25;100886.44;4751432;30;20995;-73
2022/04/07 00:35:38;;;;;;;23.63;15.00;;;;;;;36.21;47.77;100879.19;4750393;30;20932;-72
2022/04/07 00:38:04;;;;;;;30.10;16.83;;;;;;;36.08;48.13;100872.66;4750272;30;20436;-74
2022/04/07 00:40:31;;;;;;;34.57;17.70;;;;;;;35.98;48.47;100870.91;4749938;30;20646;-75
2022/04/07 00:42:57;;;;;;;41.50;17.87;;;;;;;36.20;47.45;100866.81;4750160;30;20460;-74
2022/04/07 00:45:24;;;;;;;21.23;14.33;;;;;;;36.08;48.01;100867.25;4750493;30;20799;-73
2022/04/07 00:47:51;;;;;;;28.10;14.50;;;;;;;36.28;47.26;100866.16;4750271;30;20492;-73
2022/04/07 00:50:19;;;;;;;37.50;15.17;;;;;;;36.21;47.71;100860.28;4750109;30;20436;-74
2022/04/07 00:52:55;;;;;;;23.73;16.13;;;;;;;36.08;47.94;100844.84;4750006;30;20417;-73
2022/04/07 00:55:22;;;;;;;29.83;15.90;;;;;;;35.98;48.24;100841.22;4750282;30;20511;-74
2022/04/07 00:57:49;;;;;;;28.77;16.50;;;;;;;36.16;47.50;100838.78;4750078;30;20524;-74
2022/04/07 01:00:16;;;;;;;22.57;16.27;;;;;;;36.02;47.92;100831.41;4749812;30;20542;-72
2022/04/07 01:02:42;;;;;;;28.33;17.20;;;;;;;36.25;47.01;100824.31;4750110;30;20429;-72
2022/04/07 01:05:09;;;;;;;33.10;17.27;;;;;;;35.89;48.25;100817.84;4750004;30;20929;-73
2022/04/07 01:07:39;;;;;;;26.13;17.13;;;;;;;35.84;48.60;100810.59;4751230;30;20413;-72
2022/04/07 01:10:08;;;;;;;33.67;17.43;;;;;;;35.80;48.81;100806.91;4750013;30;20894;-72
2022/04/07 01:12:38;;;;;;;30.73;16.90;;;;;;;35.97;48.19;100804.53;4751090;30;20413;-73
2022/04/07 01:15:06;;;;;;;26.30;15.47;;;;;;;35.61;48.69;100800.72;4751112;30;20413;-72
2022/04/07 01:17:38;;;;;;;29.60;15.73;;;;;;;35.82;48.44;100793.91;4751174;30;20472;-74
2022/04/07 01:20:06;;;;;;;23.17;15.27;;;;;;;36.05;48.04;100793.03;4749875;30;20469;-72
2022/04/07 01:22:38;;;;;;;26.40;15.07;;;;;;;36.23;47.04;100791.41;4749750;30;20490;-72
2022/04/07 01:25:05;;;;;;;28.17;17.07;;;;;;;36.29;46.68;100792.91;4749915;30;20425;-72
2022/04/07 01:27:31;;;;;;;27.80;14.50;;;;;;;36.36;46.89;100789.84;4751174;30;20409;-72
2022/04/07 01:30:04;;;;;;;44.03;17.70;;;;;;;36.45;46.41;100790.78;4749771;30;20994;-73
2022/04/07 01:32:35;;;;;;;26.80;15.50;;;;;;;36.42;46.79;100791.38;4751087;30;20475;-73
2022/04/07 01:35:02;;;;;;;24.70;14.80;;;;;;;36.47;46.69;100794.00;4749625;30;20504;-73
2022/04/07 01:37:28;;;;;;;32.67;16.57;;;;;;;36.32;46.61;100794.22;4735240;30;20422;-74
2022/04/07 01:39:54;;;;;;;21.83;15.50;;;;;;;36.21;46.81;100792.78;4751944;30;20457;-73
2022/04/07 01:42:20;;;;;;;35.63;15.83;;;;;;;36.40;46.41;100788.19;4723872;30;20504;-74
2022/04/07 01:44:52;;;;;;;25.47;14.17;;;;;;;36.41;46.17;100787.09;4738606;30;20426;-73
2022/04/07 01:47:21;;;;;;;33.17;16.17;;;;;;;36.47;46.61;100777.78;4754547;30;20413;-73
2022/04/07 01:49:59;;;;;;;19.93;13.63;;;;;;;36.38;46.75;100782.22;4753117;30;20475;-73
2022/04/07 01:52:25;;;;;;;26.67;14.80;;;;;;;36.20;47.25;100769.56;4739422;30;20876;-72
2022/04/07 01:54:53;;;;;;;31.87;14.07;;;;;;;36.10;47.02;100756.28;4752886;30;20425;-73
2022/04/07 01:57:23;;;;;;;27.27;16.13;;;;;;;36.23;46.90;100756.28;4738133;30;20567;-73
2022/04/07 01:59:53;;;;;;;23.20;14.20;;;;;;;36.26;46.58;100752.19;4753766;30;20504;-73
2022/04/07 02:02:21;;;;;;;24.03;15.50;;;;;;;36.18;46.99;100744.78;4752716;30;20476;-74
2022/04/07 02:05:00;;;;;;;35.83;17.70;;;;;;;36.25;46.83;100742.50;4738231;30;20493;-75
2022/04/07 02:07:31;;;;;;;26.43;14.17;;;;;;;36.40;46.52;100738.72;4752648;30;20432;-72
2022/04/07 02:09:59;;;;;;;32.70;15.07;;;;;;;36.34;46.66;100729.91;4737870;30;20429;-74
2022/04/07 02:12:27;;;;;;;31.73;15.27;;;;;;;36.11;47.10;100728.97;4752021;30;20425;-73
2022/04/07 02:14:54;;;;;;;28.33;15.43;;;;;;;36.02;47.34;100722.63;4753842;30;20393;-73
2022/04/07 02:17:23;;;;;;;41.67;19.20;;;;;;;35.95;47.94;100716.81;4752138;30;20429;-73
2022/04/07 02:19:50;;;;;;;37.30;19.40;;;;;;;35.92;47.91;100707.41;4752306;30;20468;-72
2022/04/07 02:22:17;;;;;;;37.20;17.37;;;;;;;35.72;47.64;100705.00;4753683;30;20408;-74
2022/04/07 02:24:44;;;;;;;28.43;17.63;;;;;;;35.72;47.77;100708.50;4752386;30;20960;-73
2022/04/07 02:27:10;;;;;;;31.37;15.80;;;;;;;36.01;47.42;100711.03;4752413;30;20428;-73
2022/04/07 02:29:37;;;;;;;34.50;16.83;;;;;;;35.54;48.29;100701.22;4752323;30;20468;-74
2022/04/07 02:32:04;;;;;;;30.33;14.00;;;;;;;35.79;47.69;100700.06;4752157;30;20421;-74
2022/04/07 02:34:30;;;;;;;40.43;15.77;;;;;;;35.70;47.77;100697.22;4752091;30;20485;-74
2022/04/07 02:36:57;;;;;;;27.17;15.27;;;;;;;35.60;47.92;100693.84;4754274;30;20430;-73
2022/04/07 02:39:23;;;;;;;26.07;13.90;;;;;;;35.84;47.49;100689.16;4752109;30;20556;-73
2022/04/07 02:41:49;;;;;;;30.83;13.83;;;;;;;36.01;46.92;100684.03;4752152;30;20425;-73
2022/04/07 02:44:18;;;;;;;23.10;12.40;;;;;;;35.55;48.12;100678.56;4752076;30;20528;-72
2022/04/07 02:46:44;;;;;;;31.27;14.60;;;;;;;35.67;47.97;100678.91;4752098;30;20429;-73
2022/04/07 02:49:10;;;;;;;20.43;11.10;;;;;;;35.75;47.33;100672.03;4751993;30;20445;-73
2022/04/07 02:51:36;;;;;;;22.97;14.20;;;;;;;35.83;47.84;100670.56;4751865;30;20460;-74
2022/04/07 02:54:02;;;;;;;22.53;13.17;;;;;;;35.68;47.87;100675.13;4751888;30;20866;-73
2022/04/07 02:56:29;;;;;;;24.43;12.33;;;;;;;35.75;47.42;100675.53;4751776;30;20421;-72
2022/04/07 02:58:56;;;;;;;28.17;14.60;;;;;;;35.67;47.55;100675.44;4752801;30;20561;-73
2022/04/07 03:01:22;;;;;;;44.43;14.67;;;;;;;35.89;47.02;100674.78;4751756;30;20425;-74
2022/04/07 03:03:49;;;;;;;24.13;12.30;;;;;;;35.93;46.89;100675.81;4752967;30;20838;-73
2022/04/07 03:06:16;;;;;;;34.83;14.67;;;;;;;35.87;47.42;100675.06;4751753;30;20421;-72
2022/04/07 03:08:43;;;;;;;19.87;11.63;;;;;;;35.98;47.37;100665.75;4751585;30;20436;-74
2022/04/07 03:11:10;;;;;;;26.13;12.10;;;;;;;35.81;47.44;100673.56;4751565;30;20464;-74
2022/04/07 03:13:36;;;;;;;26.77;11.73;;;;;;;35.94;46.93;100672.03;4752717;30;20492;-74
2022/04/07 03:16:03;;;;;;;24.63;12.87;;;;;;;35.90;47.15;100676.38;4751079;30;20463;-73
2022/04/07 03:18:29;;;;;;;27.50;12.87;;;;;;;35.69;47.51;100665.13;4751191;30;20447;-72
2022/04/07 03:20:56;;;;;;;19.10;10.50;;;;;;;35.91;47.25;100678.81;4751158;30;20522;-73
2022/04/07 03:23:22;;;;;;;25.20;12.17;;;;;;;36.02;46.46;100674.81;4751366;30;20441;-74
2022/04/07 03:25:48;;;;;;;22.57;14.27;;;;;;;36.01;46.44;100677.84;4751146;30;20956;-74
2022/04/07 03:28:14;;;;;;;21.93;10.57;;;;;;;35.78;46.97;100682.22;4752380;30;20951;-72
2022/04/07 03:30:40;;;;;;;33.40;15.17;;;;;;;35.96;46.85;100680.63;4751327;30;20444;-72
2022/04/07 03:33:06;;;;;;;31.77;12.87;;;;;;;36.01;46.86;100689.44;4751080;30;20453;-73
2022/04/07 03:35:33;;;;;;;21.87;12.67;;;;;;;35.95;46.62;100682.50;4752455;30;20421;-74
2022/04/07 03:38:00;;;;;;;31.60;13.30;;;;;;;35.82;47.21;100691.34;4751152;30;20464;-74
2022/04/07 03:40:26;;;;;;;19.50;12.23;;;;;;;35.78;47.26;100690.31;4751015;30;20464;-72
2022/04/07 03:42:53;;;;;;;34.17;13.13;;;;;;;35.87;47.35;100693.97;4750982;30;20461;-73
2022/04/07 03:45:19;;;;;;;24.63;12.30;;;;;;;35.94;47.43;100694.41;4752219;30;20979;-74
2022/04/07 03:47:45;;;;;;;35.27;14.33;;;;;;;36.08;46.51;100688.25;4750809;30;20460;-75
2022/04/07 03:50:11;;;;;;;19.63;11.80;;;;;;;36.14;46.43;100682.44;4750847;30;20461;-73
2022/04/07 03:52:38;;;;;;;27.03;12.37;;;;;;;35.96;47.17;100680.63;4750951;30;20881;-73
2022/04/07 03:55:05;;;;;;;24.83;14.53;;;;;;;35.90;47.48;100673.66;4750801;30;20432;-72
2022/04/07 03:57:31;;;;;;;20.50;13.20;;;;;;;35.69;47.71;100668.63;4752004;30;20909;-75
2022/04/07 03:59:58;;;;;;;25.67;14.53;;;;;;;35.73;47.60;100671.56;4750260;30;20499;-74
2022/04/07 04:02:24;;;;;;;28.43;16.60;;;;;;;35.81;47.35;100665.47;4750240;30;20502;-74
2022/04/07 04:04:50;;;;;;;36.17;17.93;;;;;;;35.86;47.28;100676.19;4750633;30;20800;-73
2022/04/07 04:07:16;;;;;;;29.17;13.50;;;;;;;35.57;48.11;100672.88;4750695;30;20487;-73
2022/04/07 04:09:42;;;;;;;27.20;13.53;;;;;;;35.65;47.47;100680.28;4751808;30;20922;-73
2022/04/07 04:12:09;;;;;;;19.63;11.10;;;;;;;35.60;47.96;100683.06;4750568;30;20428;-74
2022/04/07 04:14:35;;;;;;;33.87;15.03;;;;;;;35.50;47.70;100698.34;4751733;30;20496;-72
2022/04/07 04:17:01;;;;;;;28.13;14.57;;;;;;;35.28;48.54;100706.16;4750495;30;20939;-73
2022/04/07 04:19:27;;;;;;;19.07;13.43;;;;;;;35.42;47.77;100709.78;4750588;30;20471;-72
2022/04/07 04:21:53;;;;;;;23.43;14.33;;;;;;;35.61;47.59;100707.06;4750319;30;20426;-73
2022/04/07 04:24:19;;;;;;;29.47;14.33;;;;;;;35.47;47.76;100717.00;4751635;30;20942;-74
2022/04/07 04:26:45;;;;;;;28.30;14.40;;;;;;;35.38;47.88;100713.31;4750376;30;20437;-73
2022/04/07 04:29:12;;;;;;;34.00;16.13;;;;;;;35.58;47.56;100712.25;4750448;30;20433;-72
2022/04/07 04:31:38;;;;;;;29.30;13.40;;;;;;;35.51;47.69;100716.13;4750375;30;20437;-73
2022/04/07 04:34:04;;;;;;;29.40;15.10;;;;;;;35.64;47.65;100714.56;4750307;30;20964;-73
2022/04/07 04:36:30;;;;;;;26.80;15.17;;;;;;;35.76;47.46;100719.53;4750329;30;20432;-73
2022/04/07 04:38:56;;;;;;;36.97;14.80;;;;;;;35.63;47.48;100715.69;4750119;30;20437;-74
2022/04/07 04:41:22;;;;;;;24.90;13.13;;;;;;;35.64;47.44;100711.88;4750344;30;20427;-72
2022/04/07 04:43:48;;;;;;;26.13;13.30;;;;;;;35.58;47.69;100715.75;4750517;30;20437;-72
2022/04/07 04:46:14;;;;;;;26.60;12.70;;;;;;;35.57;47.82;100718.75;4750330;30;20498;-72
2022/04/07 04:48:40;;;;;;;19.13;13.83;;;;;;;35.81;47.19;100719.44;4749437;30;20433;-72
2022/04/07 04:51:06;;;;;;;27.53;15.40;;;;;;;35.57;47.69;100722.25;4750212;30;20464;-74
2022/04/07 04:53:33;;;;;;;30.00;15.63;;;;;;;35.63;47.08;100723.75;4751575;30;20453;-74
2022/04/07 04:55:59;;;;;;;22.53;14.90;;;;;;;35.64;46.97;100728.06;4750155;30;20435;-73
2022/04/07 04:58:25;;;;;;;25.53;16.33;;;;;;;35.54;46.90;100733.59;4749655;30;20486;-72
2022/04/07 05:00:51;;;;;;;24.57;14.50;;;;;;;35.60;46.94;100734.34;4749967;30;21062;-72
2022/04/07 05:03:17;;;;;;;33.07;16.37;;;;;;;35.62;46.98;100741.06;4753542;30;20504;-73
2022/04/07 05:05:43;;;;;;;27.27;16.03;;;;;;;35.70;47.18;100742.28;4749973;30;20441;-72
2022/04/07 05:08:09;;;;;;;37.47;21.20;;;;;;;35.63;46.81;100749.94;4749904;30;20522;-72
2022/04/07 05:10:36;;;;;;;33.77;23.20;;;;;;;35.86;46.75;100751.75;4750015;30;20860;-72
2022/04/07 05:13:03;;;;;;;35.80;23.10;;;;;;;35.57;46.91;100761.91;4750055;30;20441;-72
2022/04/07 05:15:29;;;;;;;39.87;20.60;;;;;;;35.62;47.34;100764.53;4753215;30;20408;-75
2022/04/07 05:17:55;;;;;;;30.43;19.97;;;;;;;35.79;46.76;100770.22;4753499;30;20429;-73
2022/04/07 05:20:21;;;;;;;40.53;27.50;;;;;;;35.65;47.10;100778.22;4753300;30;20484;-73
2022/04/07 05:22:47;;;;;;;30.93;22.83;;;;;;;35.43;47.33;100783.41;4753370;30;20925;-74
2022/04/07 05:25:14;;;;;;;24.67;15.70;;;;;;;35.56;46.99;100782.69;4753007;30;20474;-73
2022/04/07 05:27:40;;;;;;;39.03;22.30;;;;;;;35.68;46.90;100782.25;4752472;30;20442;-73
2022/04/07 05:30:15;;;;;;;43.73;30.07;;;;;;;35.82;46.72;100785.00;4739291;30;20444;-72
2022/04/07 05:32:43;;;;;;;32.07;21.10;;;;;;;35.93;46.57;100795.41;4736936;30;20495;-72
2022/04/07 05:35:10;;;;;;;27.20;16.97;;;;;;;35.97;46.22;100791.03;4735612;30;20542;-72
2022/04/07 05:37:37;;;;;;;41.67;24.50;;;;;;;35.82;46.73;100791.22;4735477;30;20437;-72
2022/04/07 05:40:04;;;;;;;34.33;20.53;;;;;;;35.78;46.97;100782.09;4735334;30;21032;-73
2022/04/07 05:42:31;;;;;;;31.17;22.90;;;;;;;35.68;46.99;100783.06;4735494;30;20430;-73
2022/04/07 05:44:57;;;;;;;41.00;23.60;;;;;;;35.87;46.73;100793.84;4735345;30;20436;-73
2022/04/07 05:47:23;;;;;;;42.10;23.30;;;;;;;35.85;46.80;100797.91;4735396;30;20457;-71
2022/04/07 05:49:49;;;;;;;36.47;28.17;;;;;;;35.81;47.19;100805.81;4735405;30;20433;-71
2022/04/07 05:52:15;;;;;;;36.67;23.87;;;;;;;35.71;47.10;100805.94;4735332;30;21043;-72
2022/04/07 05:54:41;;;;;;;35.03;18.73;;;;;;;35.78;46.79;100807.19;4735543;30;20466;-75
2022/04/07 05:57:07;;;;;;;34.67;21.03;;;;;;;35.68;47.29;100807.34;4735290;30;20476;-74
2022/04/07 05:59:33;;;;;;;27.83;19.20;;;;;;;35.64;46.77;100809.00;4734618;30;20490;-74
2022/04/07 06:01:59;;;;;;;30.40;22.00;;;;;;;35.61;47.19;100803.41;4747378;30;20664;-75
2022/04/07 06:04:25;;;;;;;32.83;22.57;;;;;;;35.56;47.08;100811.56;4752146;30;20426;-72
2022/04/07 06:06:51;;;;;;;38.80;24.27;;;;;;;35.76;46.43;100816.66;4753342;30;20492;-73
2022/04/07 06:09:17;;;;;;;37.27;23.13;;;;;;;35.68;46.67;100820.84;4752152;30;20428;-75
2022/04/07 06:11:43;;;;;;;28.70;21.07;;;;;;;35.79;46.55;100826.91;4751865;30;20440;-74
2022/04/07 06:14:09;;;;;;;27.07;21.93;;;;;;;35.87;46.48;100836.22;4751990;30;20478;-74
2022/04/07 06:16:35;;;;;;;33.90;23.40;;;;;;;35.91;46.49;100842.63;4751731;30;20444;-75
2022/04/07 06:19:01;;;;;;;39.53;24.90;;;;;;;36.04;46.27;100855.44;4752203;30;20424;-74
2022/04/07 06:21:30;;;;;;;46.47;25.57;;;;;;;36.06;46.23;100870.25;4751016;30;21239;-74
2022/04/07 06:23:57;;;;;;;46.60;30.20;;;;;;;35.89;46.24;100880.72;4752596;30;20478;-75
2022/04/07 06:26:24;;;;;;;45.40;31.87;;;;;;;35.83;47.00;100884.56;4737346;30;20428;-73
2022/04/07 06:28:50;;;;;;;45.60;29.57;;;;;;;36.12;46.14;100894.47;4752461;30;20410;-73
2022/04/07 06:31:16;;;;;;;37.77;26.23;;;;;;;36.51;45.45;100900.34;4752438;30;20504;-78
2022/04/07 06:33:42;;;;;;;39.63;29.10;;;;;;;36.75;44.80;100902.94;4750496;30;20524;-74
2022/04/07 06:36:08;;;;;;;54.07;34.70;;;;;;;36.93;44.64;100908.63;4750440;30;20425;-76
2022/04/07 06:38:34;;;;;;;42.13;33.87;;;;;;;36.73;44.56;100907.84;4750434;30;20494;-75
2022/04/07 06:41:01;;;;;;;45.37;32.33;;;;;;;36.65;45.28;100911.22;4750567;30;20473;-75
2022/04/07 06:43:27;;;;;;;43.50;32.90;;;;;;;36.46;45.64;100915.84;4749796;30;20426;-75
2022/04/07 06:46:16;;;;;;;45.53;35.83;;;;;;;36.49;46.17;100921.47;4751826;30;20414;-75
2022/04/07 06:48:45;;;;;;;62.80;38.93;;;;;;;36.63;45.37;100923.41;4751632;30;20448;-73
2022/04/07 06:51:11;;;;;;;54.10;38.00;;;;;;;36.65;45.58;100918.50;4752137;30;20807;-73
2022/04/07 06:53:37;;;;;;;51.40;35.83;;;;;;;36.76;45.88;100922.66;4750285;30;20430;-75
2022/04/07 06:56:03;;;;;;;54.47;36.07;;;;;;;36.77;45.88;100922.38;4751702;30;20446;-73
2022/04/07 06:58:29;;;;;;;52.77;36.40;;;;;;;36.82;46.00;100922.25;4749037;30;20946;-74
2022/04/07 07:00:55;;;;;;;54.63;37.00;;;;;;;36.70;46.07;100915.72;4735699;30;21009;-73
2022/04/07 07:03:22;;;;;;;50.97;35.20;;;;;;;36.53;46.41;100917.09;4750366;30;20495;-73
2022/04/07 07:05:48;;;;;;;53.60;38.80;;;;;;;36.61;46.19;100914.81;4750895;30;20447;-74
2022/04/07 07:08:18;;;;;;;48.97;36.67;;;;;;;36.76;46.33;100914.53;4737174;30;20429;-74
2022/04/07 07:10:47;;;;;;;44.83;33.07;;;;;;;36.52;47.05;100915.50;4751357;30;20835;-74
2022/04/07 07:13:16;;;;;;;49.27;33.23;;;;;;;36.59;46.66;100920.53;4728505;30;20596;-74
2022/04/07 07:15:43;;;;;;;55.30;35.50;;;;;;;36.83;46.25;100925.78;4735451;30;20463;-75
2022/04/07 07:18:09;;;;;;;46.90;34.40;;;;;;;36.63;47.01;100931.53;4747762;30;20483;-74
2022/04/07 07:20:36;;;;;;;45.63;32.63;;;;;;;36.69;47.08;100933.06;4751229;30;20460;-74
2022/04/07 07:23:02;;;;;;;61.30;33.57;;;;;;;36.87;46.51;100943.03;4751551;30;20475;-74
2022/04/07 07:25:31;;;;;;;39.13;27.63;;;;;;;36.94;46.13;100943.47;4749918;30;20428;-74
2022/04/07 07:27:58;;;;;;;41.90;30.40;;;;;;;37.01;46.39;100930.34;4749906;30;20453;-74
2022/04/07 07:30:25;;;;;;;49.70;27.87;;;;;;;37.16;46.24;100933.88;4750311;30;20445;-74
2022/04/07 07:32:53;;;;;;;48.00;26.20;;;;;;;37.25;45.92;100932.88;4751321;30;20519;-74
2022/04/07 07:35:20;;;;;;;46.83;24.57;;;;;;;37.27;46.01;100948.84;4751260;30;20481;-74
2022/04/07 07:37:49;;;;;;;35.40;25.17;;;;;;;37.35;45.43;100948.97;4748989;30;20994;-72
2022/04/07 07:40:15;;;;;;;42.63;24.30;;;;;;;37.35;45.50;100948.16;4749731;30;20491;-73
2022/04/07 07:42:42;;;;;;;41.23;23.57;;;;;;;37.39;45.90;100957.28;4749703;30;20444;-73
2022/04/07 07:45:08;;;;;;;42.47;20.97;;;;;;;37.45;45.96;100963.41;4749794;30;20448;-73
2022/04/07 07:47:35;;;;;;;49.03;24.13;;;;;;;37.47;45.58;100956.59;4749625;30;20453;-74
2022/04/07 07:50:03;;;;;;;37.03;19.23;;;;;;;37.51;45.97;100951.38;4749495;30;20524;-73
2022/04/07 07:52:29;;;;;;;50.67;23.60;;;;;;;37.35;46.22;100956.28;4735423;30;20425;-73
2022/04/07 07:54:55;;;;;;;26.97;18.27;;;;;;;37.33;46.67;100955.75;4750792;30;20529;-74
2022/04/07 07:57:21;;;;;;;25.10;17.57;;;;;;;37.45;46.20;100966.13;4750874;30;20560;-75
2022/04/07 07:59:49;;;;;;;48.13;20.60;;;;;;;37.52;46.33;100967.31;4750396;30;20528;-72
2022/04/07 08:02:15;;;;;;;41.50;23.00;;;;;;;37.60;45.95;100968.50;4750687;30;20432;-75
2022/04/07 08:04:41;;;;;;;33.93;21.47;;;;;;;37.64;46.20;100958.69;4750616;30;21013;-73
2022/04/07 08:07:07;;;;;;;31.30;16.20;;;;;;;37.54;46.41;100970.50;4750738;30;20490;-73
2022/04/07 08:09:33;;;;;;;39.77;19.87;;;;;;;37.64;46.10;100967.59;4750849;30;20519;-73
2022/04/07 08:11:59;;;;;;;33.70;18.67;;;;;;;37.63;46.67;100976.84;4751878;30;20449;-73
2022/04/07 08:14:25;;;;;;;25.07;15.27;;;;;;;37.55;46.72;100992.97;4750648;30;20510;-73
2022/04/07 08:16:51;;;;;;;26.43;15.07;;;;;;;37.72;46.12;101005.91;4750426;30;20521;-74
2022/04/07 08:19:17;;;;;;;30.70;17.03;;;;;;;37.85;46.04;101019.47;4734971;30;20552;-73
2022/04/07 08:21:43;;;;;;;39.10;19.60;;;;;;;37.91;45.87;101020.16;4750198;30;20793;-75
2022/04/07 08:24:09;;;;;;;54.33;20.57;;;;;;;37.89;45.78;101033.22;4750424;30;20861;-75
2022/04/07 08:26:35;;;;;;;49.50;18.17;;;;;;;37.85;45.59;101029.50;4750489;30;20441;-75
2022/04/07 08:29:02;;;;;;;41.80;19.47;;;;;;;37.84;45.56;101033.31;4749204;30;20436;-75
2022/04/07 08:31:28;;;;;;;45.70;20.37;;;;;;;37.86;46.16;101036.50;4749914;30;20424;-74
2022/04/07 08:33:54;;;;;;;47.17;21.50;;;;;;;37.86;46.25;101050.84;4748555;30;20448;-73
2022/04/07 08:36:20;;;;;;;40.50;18.90;;;;;;;37.88;46.52;101042.44;4748514;30;20440;-76
2022/04/07 08:38:46;;;;;;;33.07;19.83;;;;;;;37.78;46.56;101037.97;4748458;30;20431;-75
2022/04/07 08:41:12;;;;;;;40.77;19.70;;;;;;;37.89;46.26;101042.13;4749545;30;20449;-74
2022/04/07 08:43:40;;;;;;;33.50;19.47;;;;;;;37.97;46.17;101054.16;4749139;30;20448;-74
2022/04/07 08:46:14;;;;;;;34.77;15.93;;;;;;;37.90;46.25;101070.81;4750406;30;20436;-74
2022/04/07 08:48:43;;;;;;;33.57;18.60;;;;;;;37.92;46.07;101073.22;4750164;30;20409;-74
2022/04/07 08:51:10;;;;;;;32.53;16.43;;;;;;;37.92;46.42;101078.63;4750203;30;20468;-72
2022/04/07 08:53:38;;;;;;;28.80;16.20;;;;;;;37.98;46.17;101082.84;4750283;30;20913;-73
2022/04/07 08:56:06;;;;;;;34.00;14.70;;;;;;;38.08;46.27;101089.97;4735534;30;20809;-73
2022/04/07 08:58:33;;;;;;;34.70;16.27;;;;;;;38.14;46.63;101094.19;4749718;30;20503;-72
2022/04/07 09:00:59;;;;;;;22.67;14.10;;;;;;;38.10;46.05;101096.69;4751336;30;20460;-72
2022/04/07 09:03:26;;;;;;;30.70;14.53;;;;;;;38.10;46.26;101101.28;4751494;30;20501;-73
2022/04/07 09:05:56;;;;;;;31.53;15.10;;;;;;;38.03;46.00;101099.00;4750060;30;20429;-73
2022/04/07 09:08:34;;;;;;;24.87;13.03;;;;;;;38.11;46.03;101109.09;4749946;30;20876;-73
2022/04/07 09:11:02;;;;;;;23.63;14.20;;;;;;;38.18;45.86;101106.81;4720040;30;20434;-73
2022/04/07 09:13:31;;;;;;;34.57;15.80;;;;;;;38.16;46.13;101111.72;4734555;30;20446;-73
2022/04/07 09:15:59;;;;;;;28.33;14.77;;;;;;;38.22;46.32;101111.63;4732374;30;20437;-74
2022/04/07 09:18:26;;;;;;;19.70;13.57;;;;;;;38.26;45.59;101109.94;4732331;30;20508;-74
2022/04/07 09:20:52;;;;;;;20.53;15.30;;;;;;;38.33;45.97;101108.44;4732271;30;20462;-73
2022/04/07 09:23:19;;;;;;;27.57;12.03;;;;;;;38.36;45.90;101101.59;4733600;30;20402;-72
2022/04/07 09:25:49;;;;;;;20.60;10.67;;;;;;;38.13;46.33;101106.94;4732343;30;21001;-72
2022/04/07 09:28:32;;;;;;;22.77;10.83;;;;;;;38.21;45.87;101107.31;4718156;30;20497;-72
2022/04/07 09:31:00;;;;;;;26.87;10.60;;;;;;;38.20;45.52;101113.84;4717855;30;20464;-72
2022/04/07 09:33:29;;;;;;;19.13;8.23;;;;;;;38.16;45.89;101105.50;4732328;30;20434;-72
2022/04/07 09:36:05;;;;;;;19.63;8.40;;;;;;;38.30;45.41;101119.06;4732433;30;20418;-72
2022/04/07 09:38:31;;;;;;;17.97;10.17;;;;;;;38.07;45.93;101110.03;4717779;30;20430;-72
2022/04/07 09:41:08;;;;;;;21.50;8.00;;;;;;;38.18;45.82;101106.00;4732201;30;21091;-72
2022/04/07 09:43:58;;;;;;;20.63;10.17;;;;;;;38.32;45.13;101095.19;4732025;30;20468;-74
2022/04/07 09:46:25;;;;;;;21.63;8.10;;;;;;;38.26;45.16;101086.38;4732084;30;20510;-75
2022/04/07 09:49:17;;;;;;;12.17;6.70;;;;;;;38.25;44.62;101081.22;4732130;30;20524;-74
2022/04/07 09:51:48;;;;;;;17.53;8.13;;;;;;;38.26;44.36;101094.50;4733679;30;20943;-72
2022/04/07 09:54:18;;;;;;;15.50;7.77;;;;;;;38.33;44.79;101084.06;4732127;30;20430;-74
2022/04/07 09:56:47;;;;;;;25.80;10.80;;;;;;;38.28;44.48;101086.84;4733069;30;20826;-71
2022/04/07 09:59:19;;;;;;;26.00;10.77;;;;;;;38.31;44.51;101090.88;4717280;30;20494;-72
2022/04/07 10:01:47;;;;;;;25.73;9.20;;;;;;;38.24;44.68;101093.94;4735328;30;20880;-70
2022/04/07 10:04:16;;;;;;;14.47;8.37;;;;;;;38.27;44.77;101098.00;4706860;30;20446;-70
2022/04/07 10:06:44;;;;;;;16.27;9.50;;;;;;;38.43;44.77;101099.31;4735493;30;20926;-72
2022/04/07 10:09:11;;;;;;;16.53;7.70;;;;;;;38.35;44.63;101086.44;4736444;30;20935;-72
2022/04/07 10:11:37;;;;;;;21.10;8.27;;;;;;;38.43;45.03;101091.97;4736397;30;20831;-75
2022/04/07 10:14:04;;;;;;;23.77;9.27;;;;;;;38.29;45.20;101084.94;4736311;30;20442;-74
2022/04/07 10:16:30;;;;;;;23.07;8.83;;;;;;;38.18;45.17;101097.88;4735074;30;20514;-73
2022/04/07 10:19:05;;;;;;;12.40;7.37;;;;;;;38.39;44.66;101103.72;4734906;30;20505;-74
2022/04/07 10:21:43;;;;;;;17.07;8.77;;;;;;;38.41;44.96;101105.00;4734885;30;20430;-75
2022/04/07 10:24:22;;;;;;;14.43;7.43;;;;;;;38.30;44.83;101100.09;4734838;30;20433;-74
2022/04/07 10:26:49;;;;;;;18.07;8.03;;;;;;;38.44;45.13;101117.16;4734824;30;20430;-73
2022/04/07 10:29:23;;;;;;;15.80;7.10;;;;;;;38.48;44.73;101120.06;4705808;30;20822;-73
2022/04/07 10:32:10;;;;;;;16.00;8.17;;;;;;;38.48;44.79;101115.44;4734616;30;20433;-74
2022/04/07 10:34:37;;;;;;;21.07;7.93;;;;;;;38.31;45.29;101118.00;4737399;30;20426;-75
2022/04/07 10:37:07;;;;;;;16.07;6.83;;;;;;;38.34;45.04;101114.66;4743398;30;20429;-73
2022/04/07 10:39:34;;;;;;;14.70;7.60;;;;;;;38.37;45.50;101112.16;4743560;30;20540;-73
2022/04/07 10:42:01;;;;;;;12.00;7.13;;;;;;;38.14;45.39;101105.81;4741963;30;20426;-73
2022/04/07 10:44:28;;;;;;;16.80;10.43;;;;;;;38.28;45.95;101105.81;4744147;30;20417;-73
2022/04/07 10:47:10;;;;;;;20.10;8.30;;;;;;;38.20;45.65;101103.00;4743483;30;20484;-73
2022/04/07 10:49:46;;;;;;;32.60;10.40;;;;;;;38.19;45.87;101115.75;4743582;30;20933;-73
2022/04/07 10:52:26;;;;;;;27.67;8.07;;;;;;;38.23;45.67;101096.97;4743317;30;20487;-74
2022/04/07 10:55:12;;;;;;;13.20;6.70;;;;;;;38.29;45.63;101085.75;4743511;30;20445;-75
2022/04/07 10:58:11;;;;;;;23.27;9.27;;;;;;;38.59;45.37;101081.56;4744429;30;20516;-75
2022/04/07 11:00:38;;;;;;;19.87;8.37;;;;;;;38.62;44.86;101089.13;4744451;30;20488;-74
2022/04/07 11:03:15;;;;;;;21.73;11.43;;;;;;;38.65;44.94;101082.25;4748774;30;20421;-73
2022/04/07 11:05:58;;;;;;;12.50;6.23;;;;;;;38.60;45.14;101079.66;4734061;30;20840;-73
2022/04/07 11:08:24;;;;;;;17.23;7.93;;;;;;;38.37;44.95;101070.72;4749603;30;20460;-73
2022/04/07 11:10:52;;;;;;;16.50;7.20;;;;;;;38.58;45.15;101071.03;4749400;30;20461;-73
2022/04/07 11:13:38;;;;;;;23.10;8.60;;;;;;;38.64;44.97;101064.41;4750982;30;20436;-74